Time;durP1;ratioP1;P1;durP2;ratioP2;P2;SDS_P1;SDS_P2;PMS_P1;PMS_P2;Temp;Humidity;BMP_temperature;BMP_pressure;BME280_temperature;BME280_humidity;BME280_pressure;Samples;Min_cycle;Max_cycle;Signal;HPM_P1;HPM_P2
2022/03/01 00:01:00;;;;;;;14.58;7.60;;;1.70;99.90;;;;;;1827842;78;21036;-75
2022/03/01 00:03:27;;;;;;;12.45;7.83;;;1.60;99.90;;;;;;1807171;78;21533;-75
2022/03/01 00:05:55;;;;;;;14.28;8.13;;;1.60;99.90;;;;;;1827758;78;21128;-75
2022/03/01 00:08:22;;;;;;;13.90;8.20;;;1.50;99.90;;;;;;1829088;78;21266;-75
2022/03/01 00:10:49;;;;;;;11.48;7.05;;;1.50;99.90;;;;;;1827740;78;21035;-75
2022/03/01 00:13:17;;;;;;;14.47;7.85;;;1.40;99.90;;;;;;1827793;78;21051;-75
2022/03/01 00:15:44;;;;;;;11.18;7.62;;;1.40;99.90;;;;;;1827805;78;21075;-75
2022/03/01 00:18:11;;;;;;;22.27;8.98;;;1.30;99.90;;;;;;1827721;78;21188;-74
2022/03/01 00:20:38;;;;;;;15.08;8.78;;;1.20;99.90;;;;;;1827738;78;21483;-75
2022/03/01 00:23:06;;;;;;;13.43;8.30;;;1.30;99.90;;;;;;1827770;78;21129;-76
2022/03/01 00:25:33;;;;;;;16.60;8.50;;;1.30;99.90;;;;;;1827758;78;21066;-76
2022/03/01 00:28:00;;;;;;;19.32;9.05;;;1.30;99.90;;;;;;1827817;78;21129;-75
2022/03/01 00:30:28;;;;;;;12.65;7.50;;;1.20;99.90;;;;;;1827764;78;21101;-75
2022/03/01 00:32:55;;;;;;;12.53;8.30;;;1.20;99.90;;;;;;1827835;78;21121;-75
2022/03/01 00:35:22;;;;;;;12.00;8.33;;;1.30;99.90;;;;;;1827721;78;21162;-75
2022/03/01 00:37:50;;;;;;;19.85;8.88;;;1.20;99.90;;;;;;1827771;78;21133;-76
2022/03/01 00:40:17;;;;;;;15.68;8.08;;;1.10;99.90;;;;;;1827881;78;21444;-75
2022/03/01 00:42:46;;;;;;;13.60;8.10;;;1.10;99.90;;;;;;1827697;78;21055;-75
2022/03/01 00:45:13;;;;;;;17.07;8.85;;;1.00;99.90;;;;;;1827661;78;21055;-75
2022/03/01 00:47:40;;;;;;;25.60;8.80;;;1.00;99.90;;;;;;1827815;78;21067;-75
2022/03/01 00:50:08;;;;;;;13.75;7.92;;;0.90;99.90;;;;;;1827668;78;21113;-75
2022/03/01 00:52:35;;;;;;;14.10;8.50;;;1.00;99.90;;;;;;1827723;78;21031;-74
2022/03/01 00:55:03;;;;;;;21.05;9.63;;;1.00;99.90;;;;;;1827714;78;21129;-75
2022/03/01 00:57:30;;;;;;;14.95;8.80;;;0.90;99.90;;;;;;1827871;78;21040;-75
2022/03/01 00:59:57;;;;;;;19.65;8.98;;;0.90;99.90;;;;;;1827832;78;21435;-75
2022/03/01 01:02:25;;;;;;;15.90;9.03;;;0.80;99.90;;;;;;1827787;78;21188;-75
2022/03/01 01:04:52;;;;;;;12.95;7.65;;;0.80;99.90;;;;;;1827776;78;21133;-75
2022/03/01 01:07:19;;;;;;;15.75;8.35;;;0.70;99.90;;;;;;1827851;78;21141;-75
2022/03/01 01:09:47;;;;;;;14.18;8.45;;;0.70;99.90;;;;;;1827691;78;21058;-75
2022/03/01 01:12:14;;;;;;;21.80;9.25;;;0.80;99.90;;;;;;1827836;78;21075;-75
2022/03/01 01:14:41;;;;;;;17.27;8.88;;;0.70;99.90;;;;;;1827760;78;21187;-75
2022/03/01 01:17:09;;;;;;;16.27;9.68;;;0.70;99.90;;;;;;1827871;78;21055;-75
2022/03/01 01:19:36;;;;;;;15.60;8.93;;;0.70;99.90;;;;;;1827689;78;21063;-75
2022/03/01 01:24:49;;;;;;;15.43;9.38;;;0.60;99.90;;;;;;1827783;78;21149;-75
2022/03/01 01:27:16;;;;;;;15.85;9.55;;;0.50;99.90;;;;;;1827826;78;21133;-75
2022/03/01 01:29:44;;;;;;;14.95;9.23;;;0.50;99.90;;;;;;1827687;78;21148;-75
2022/03/01 01:32:11;;;;;;;19.45;8.80;;;0.40;99.90;;;;;;1827903;78;21082;-75
2022/03/01 01:34:38;;;;;;;14.20;8.50;;;0.30;99.90;;;;;;1827755;78;21482;-75
2022/03/01 01:37:05;;;;;;;16.15;9.40;;;0.30;99.90;;;;;;1827892;78;21133;-75
2022/03/01 01:39:33;;;;;;;15.98;8.63;;;0.20;99.90;;;;;;1832663;78;21538;-74
2022/03/01 01:42:00;;;;;;;18.67;8.88;;;0.20;99.90;;;;;;1827796;78;21051;-75
2022/03/01 01:44:30;;;;;;;16.90;8.65;;;0.20;99.90;;;;;;1827675;78;21124;-76
2022/03/01 01:46:57;;;;;;;16.00;8.38;;;0.10;99.90;;;;;;1827944;78;21063;-75
2022/03/01 01:49:25;;;;;;;19.10;8.30;;;0.00;99.90;;;;;;1827839;78;21149;-76
2022/03/01 01:51:52;;;;;;;32.03;9.13;;;-0.10;99.90;;;;;;1832686;78;21085;-76
2022/03/01 01:54:19;;;;;;;12.53;7.90;;;-0.20;99.90;;;;;;1824948;78;21047;-74
2022/03/01 01:56:46;;;;;;;14.83;8.75;;;-0.20;99.90;;;;;;1827768;78;21459;-76
2022/03/01 01:59:14;;;;;;;15.23;8.25;;;-0.30;99.90;;;;;;1827698;78;21032;-77
2022/03/01 02:01:41;;;;;;;13.58;8.08;;;-0.20;99.90;;;;;;1827713;78;21537;-75
2022/03/01 02:04:08;;;;;;;14.50;8.48;;;-0.20;99.90;;;;;;1807259;78;21047;-76
2022/03/01 02:06:41;;;;;;;17.02;8.38;;;-0.20;99.90;;;;;;1827744;78;21066;-74
2022/03/01 02:09:08;;;;;;;20.70;9.35;;;-0.20;99.90;;;;;;1804285;78;21102;-75
2022/03/01 02:11:35;;;;;;;15.63;8.80;;;-0.10;99.90;;;;;;1837674;78;21063;-76
2022/03/01 02:14:03;;;;;;;11.57;7.97;;;-0.20;99.90;;;;;;1827828;78;21055;-76
2022/03/01 02:16:30;;;;;;;16.20;9.13;;;-0.20;99.90;;;;;;1827777;78;21121;-74
2022/03/01 02:18:59;;;;;;;13.65;8.18;;;-0.20;99.90;;;;;;1827842;78;21055;-75
2022/03/01 02:21:26;;;;;;;16.85;9.00;;;-0.30;99.90;;;;;;1827845;78;21102;-74
2022/03/01 02:23:53;;;;;;;11.93;7.40;;;-0.30;99.90;;;;;;1827949;78;21059;-75
2022/03/01 02:26:21;;;;;;;17.40;9.03;;;-0.40;99.90;;;;;;1827845;78;21062;-74
2022/03/01 02:28:48;;;;;;;12.50;8.58;;;-0.50;99.90;;;;;;1827917;78;21176;-76
2022/03/01 02:31:15;;;;;;;15.53;8.83;;;-0.60;99.90;;;;;;1827886;78;21059;-74
2022/03/01 02:33:43;;;;;;;16.25;8.50;;;-0.50;99.90;;;;;;1827948;78;21090;-74
2022/03/01 02:36:10;;;;;;;13.25;8.15;;;-0.50;99.90;;;;;;1827793;78;21529;-74
2022/03/01 02:38:37;;;;;;;13.78;8.65;;;-0.40;99.90;;;;;;1827884;78;21055;-74
2022/03/01 02:41:05;;;;;;;13.93;8.35;;;-0.50;99.90;;;;;;1827842;78;21076;-74
2022/03/01 02:43:32;;;;;;;13.40;8.63;;;-0.50;99.90;;;;;;1827916;78;21498;-74
2022/03/01 02:45:59;;;;;;;13.50;8.08;;;-0.60;99.90;;;;;;1827810;78;21039;-75
2022/03/01 02:48:26;;;;;;;17.80;8.85;;;-0.70;99.90;;;;;;1827826;78;21479;-74
2022/03/01 02:50:54;;;;;;;15.38;8.45;;;-0.70;99.90;;;;;;1827891;78;21055;-76
2022/03/01 02:53:21;;;;;;;17.80;8.98;;;-0.70;99.90;;;;;;1827820;78;21043;-74
2022/03/01 02:55:50;;;;;;;17.67;9.30;;;-0.90;99.90;;;;;;1828293;78;21083;-75
2022/03/01 02:58:17;;;;;;;22.25;8.65;;;-0.90;99.90;;;;;;1827909;78;21032;-74
2022/03/01 03:00:45;;;;;;;15.13;8.78;;;-0.80;99.90;;;;;;1827836;78;21176;-74
2022/03/01 03:03:13;;;;;;;16.02;8.60;;;-0.80;99.90;;;;;;1827816;78;21047;-74
2022/03/01 03:05:40;;;;;;;15.65;8.00;;;-0.70;99.90;;;;;;1807143;78;21163;-76
2022/03/01 03:08:07;;;;;;;14.28;8.83;;;-0.80;99.90;;;;;;1827784;78;21051;-74
2022/03/01 03:10:35;;;;;;;16.15;8.43;;;-0.70;99.90;;;;;;1827802;78;21067;-75
2022/03/01 03:13:03;;;;;;;13.48;7.95;;;-0.70;99.90;;;;;;1827789;78;21054;-74
2022/03/01 03:15:30;;;;;;;11.48;7.92;;;-0.70;99.90;;;;;;1827728;78;21226;-74
2022/03/01 03:17:58;;;;;;;15.08;8.60;;;-0.70;99.90;;;;;;1827946;78;21059;-75
2022/03/01 03:20:25;;;;;;;10.82;7.28;;;-0.80;99.90;;;;;;1831103;78;21087;-75
2022/03/01 03:22:52;;;;;;;16.10;7.33;;;-0.80;99.90;;;;;;1827758;78;21201;-75
2022/03/01 03:25:20;;;;;;;11.78;7.92;;;-0.80;99.90;;;;;;1827718;78;21126;-74
2022/03/01 03:27:47;;;;;;;13.30;8.43;;;-0.90;99.90;;;;;;1827764;78;21067;-75
2022/03/01 03:30:14;;;;;;;16.20;8.55;;;-1.10;99.90;;;;;;1827763;78;21141;-75
2022/03/01 03:32:41;;;;;;;16.20;8.48;;;-1.20;99.90;;;;;;1827863;78;21066;-75
2022/03/01 03:35:09;;;;;;;19.60;9.00;;;-1.10;99.90;;;;;;1827806;78;21031;-75
2022/03/01 03:37:36;;;;;;;10.82;7.58;;;-1.10;99.90;;;;;;1827808;78;21483;-74
2022/03/01 03:40:23;;;;;;;13.28;7.80;;;-1.00;99.90;;;;;;1827717;78;21055;-75
2022/03/01 03:42:50;;;;;;;10.80;7.65;;;-1.00;99.90;;;;;;1850966;77;21438;-75
2022/03/01 03:45:18;;;;;;;15.05;8.13;;;-1.00;99.90;;;;;;1852125;77;21089;-75
2022/03/01 03:47:45;;;;;;;13.70;8.25;;;-1.00;99.90;;;;;;1851082;77;21540;-74
2022/03/01 03:50:12;;;;;;;15.90;8.50;;;-1.00;99.90;;;;;;1848001;77;21086;-74
2022/03/01 03:52:40;;;;;;;13.25;7.33;;;-0.90;99.90;;;;;;1849925;77;22520;-75
2022/03/01 03:55:08;;;;;;;11.35;7.58;;;-0.90;99.90;;;;;;1844243;77;21184;-74
2022/03/01 03:57:36;;;;;;;14.28;8.30;;;-0.90;99.90;;;;;;1839970;77;21442;-75
2022/03/01 04:00:06;;;;;;;12.07;7.22;;;-0.90;99.90;;;;;;1850912;77;21085;-74
2022/03/01 04:02:33;;;;;;;12.98;8.08;;;-1.00;99.90;;;;;;1846291;77;21054;-75
2022/03/01 04:05:01;;;;;;;17.05;7.95;;;-1.10;99.90;;;;;;1845075;77;21192;-75
2022/03/01 04:07:29;;;;;;;13.70;7.83;;;-1.20;99.90;;;;;;1843114;77;21219;-75
2022/03/01 04:09:57;;;;;;;12.63;7.78;;;-1.20;99.90;;;;;;1841745;77;21164;-74
2022/03/01 04:12:24;;;;;;;16.20;8.35;;;-1.20;99.90;;;;;;1850533;77;21328;-74
2022/03/01 04:14:51;;;;;;;11.70;7.03;;;-1.10;99.90;;;;;;1852601;77;21171;-75
2022/03/01 04:17:19;;;;;;;16.50;9.28;;;-1.20;99.90;;;;;;1845323;77;21171;-75
2022/03/01 04:19:46;;;;;;;14.98;9.20;;;-1.20;99.90;;;;;;1844042;77;21207;-74
2022/03/01 04:22:13;;;;;;;17.62;10.60;;;-1.20;99.90;;;;;;1852368;77;21085;-75
2022/03/01 04:24:41;;;;;;;18.85;9.75;;;-1.30;99.90;;;;;;1844043;77;21277;-74
2022/03/01 04:27:08;;;;;;;16.35;10.25;;;-1.30;99.90;;;;;;1850348;77;21082;-74
2022/03/01 04:29:35;;;;;;;11.35;8.40;;;-1.20;99.90;;;;;;1850987;77;21568;-74
2022/03/01 04:32:03;;;;;;;14.13;8.00;;;-1.20;99.90;;;;;;1851198;77;21050;-75
2022/03/01 04:34:31;;;;;;;15.68;8.65;;;-1.30;99.90;;;;;;1851197;77;21062;-74
2022/03/01 04:36:58;;;;;;;12.15;7.60;;;-1.30;99.90;;;;;;1851119;77;21209;-74
2022/03/01 04:39:26;;;;;;;12.73;7.75;;;-1.30;99.90;;;;;;1851052;77;21092;-74
2022/03/01 04:41:53;;;;;;;20.68;8.28;;;-1.40;99.90;;;;;;1851033;77;21050;-74
2022/03/01 04:44:20;;;;;;;18.32;8.35;;;-1.40;99.90;;;;;;1851154;77;21139;-74
2022/03/01 04:46:47;;;;;;;15.55;8.50;;;-1.50;99.90;;;;;;1850987;77;21026;-77
2022/03/01 04:49:15;;;;;;;15.35;8.40;;;-1.60;99.90;;;;;;1851278;77;21197;-73
2022/03/01 04:51:42;;;;;;;18.98;9.03;;;-1.50;99.90;;;;;;1851217;77;21144;-74
2022/03/01 04:54:09;;;;;;;18.65;9.40;;;-1.50;99.90;;;;;;1851208;77;21061;-75
2022/03/01 04:56:37;;;;;;;13.35;8.33;;;-1.40;99.90;;;;;;1851118;77;21050;-74
2022/03/01 04:59:04;;;;;;;13.80;8.47;;;-1.40;99.90;;;;;;1851065;77;21049;-75
2022/03/01 05:01:51;;;;;;;15.20;8.40;;;-1.40;99.90;;;;;;1851107;77;21050;-75
2022/03/01 05:04:22;;;;;;;12.82;8.13;;;-1.40;99.90;;;;;;1805824;79;21055;-76
2022/03/01 05:06:51;;;;;;;14.58;8.28;;;-1.40;99.90;;;;;;1758785;82;21114;-75
2022/03/01 05:09:21;;;;;;;14.90;8.53;;;-1.50;99.90;;;;;;1805403;79;21088;-75
2022/03/01 05:11:50;;;;;;;13.18;8.48;;;-1.50;99.90;;;;;;1758684;80;21082;-73
2022/03/01 05:14:17;;;;;;;14.23;9.00;;;-1.50;99.90;;;;;;1805329;79;21021;-73
2022/03/01 05:16:45;;;;;;;17.65;7.97;;;-1.60;99.90;;;;;;1758816;82;21051;-77
2022/03/01 05:19:14;;;;;;;15.72;8.83;;;-1.60;99.90;;;;;;1811869;78;21550;-75
2022/03/01 05:21:41;;;;;;;13.62;8.95;;;-1.70;99.90;;;;;;1776237;79;21180;-75
2022/03/01 05:24:08;;;;;;;13.15;8.45;;;-1.70;99.90;;;;;;1826194;78;21250;-76
2022/03/01 05:26:36;;;;;;;14.58;9.20;;;-1.80;99.90;;;;;;1829314;75;21171;-75
2022/03/01 05:29:03;;;;;;;13.78;8.68;;;-1.80;99.90;;;;;;1830024;76;21462;-76
2022/03/01 05:31:30;;;;;;;15.50;8.73;;;-1.70;99.90;;;;;;1830835;75;21084;-76
2022/03/01 05:33:58;;;;;;;15.88;9.08;;;-1.70;99.90;;;;;;1831277;75;21501;-75
2022/03/01 05:36:25;;;;;;;17.17;9.08;;;-1.90;99.90;;;;;;1841994;75;21102;-75
2022/03/01 05:38:52;;;;;;;15.00;9.30;;;-1.90;99.90;;;;;;1849210;77;21143;-74
2022/03/01 05:41:20;;;;;;;16.17;9.18;;;-2.00;99.90;;;;;;1850802;76;21504;-76
2022/03/01 05:43:47;;;;;;;21.80;9.15;;;-2.00;99.90;;;;;;1838652;75;21226;-76
2022/03/01 05:46:15;;;;;;;19.48;9.83;;;-2.10;99.90;;;;;;1833309;75;21220;-76
2022/03/01 05:48:42;;;;;;;14.55;9.03;;;-2.10;99.90;;;;;;1831914;76;21549;-75
2022/03/01 05:51:09;;;;;;;15.90;9.63;;;-2.10;99.90;;;;;;1828233;75;21085;-76
2022/03/01 05:53:37;;;;;;;19.48;9.50;;;-2.10;99.90;;;;;;1836630;75;21501;-76
2022/03/01 05:56:04;;;;;;;17.77;10.13;;;-2.10;99.90;;;;;;1866277;77;21062;-77
2022/03/01 05:58:32;;;;;;;17.00;9.10;;;-2.10;99.90;;;;;;1863923;77;21165;-76
2022/03/01 06:01:01;;;;;;;18.90;10.05;;;-2.10;99.90;;;;;;1835950;76;21087;-77
2022/03/01 06:03:28;;;;;;;18.67;9.15;;;-2.10;99.90;;;;;;1846972;75;21121;-75
2022/03/01 06:05:55;;;;;;;17.52;9.55;;;-2.10;99.90;;;;;;1858732;76;21472;-75
2022/03/01 06:08:23;;;;;;;14.70;8.50;;;-2.00;99.90;;;;;;1834687;75;21193;-76
2022/03/01 06:10:52;;;;;;;19.17;8.73;;;-2.00;99.90;;;;;;1841308;75;21162;-76
2022/03/01 06:13:19;;;;;;;15.43;9.43;;;-2.10;99.90;;;;;;1850342;75;21084;-74
2022/03/01 06:15:48;;;;;;;23.15;9.98;;;-2.10;99.90;;;;;;1863748;77;21174;-76
2022/03/01 06:18:17;;;;;;;19.40;9.23;;;-2.10;99.90;;;;;;1850367;76;21061;-77
2022/03/01 06:20:45;;;;;;;21.97;8.93;;;-2.00;99.90;;;;;;1834268;75;21167;-76
2022/03/01 06:23:12;;;;;;;16.15;9.98;;;-2.00;99.90;;;;;;1833662;75;21168;-77
2022/03/01 06:25:42;;;;;;;17.30;10.08;;;-2.00;99.90;;;;;;1854105;77;21166;-76
2022/03/01 06:28:12;;;;;;;16.25;8.85;;;-1.90;99.90;;;;;;1856356;77;21159;-78
2022/03/01 06:30:40;;;;;;;17.92;10.38;;;-1.90;99.90;;;;;;1854063;75;21097;-75
2022/03/01 06:33:07;;;;;;;16.48;9.68;;;-1.90;99.90;;;;;;1836751;75;21158;-78
2022/03/01 06:35:34;;;;;;;16.10;9.45;;;-2.00;99.90;;;;;;1838539;76;21214;-76
2022/03/01 06:38:02;;;;;;;29.67;9.93;;;-2.10;99.90;;;;;;1837979;76;21062;-73
2022/03/01 06:40:29;;;;;;;19.67;9.68;;;-2.00;99.90;;;;;;1857448;77;21477;-74
2022/03/01 06:42:57;;;;;;;18.02;9.58;;;-1.90;99.90;;;;;;1831889;75;21718;-75
2022/03/01 06:45:24;;;;;;;19.40;10.43;;;-1.90;99.90;;;;;;1831970;75;21150;-76
2022/03/01 06:47:51;;;;;;;20.10;9.73;;;-1.90;99.90;;;;;;1856890;75;21080;-77
2022/03/01 06:50:19;;;;;;;17.10;9.93;;;-1.80;99.90;;;;;;1857128;76;21162;-78
2022/03/01 06:52:48;;;;;;;17.52;9.85;;;-1.80;99.90;;;;;;1854602;75;21081;-78
2022/03/01 06:55:19;;;;;;;13.40;8.47;;;-1.70;99.90;;;;;;1848769;77;21143;-77
2022/03/01 06:57:46;;;;;;;19.30;9.23;;;-1.70;99.90;;;;;;1828219;75;21078;-72
2022/03/01 07:00:14;;;;;;;15.95;9.05;;;-1.70;99.90;;;;;;1838600;76;21093;-77
2022/03/01 07:02:41;;;;;;;15.65;9.18;;;-1.60;99.90;;;;;;1826422;75;21477;-76
2022/03/01 07:05:12;;;;;;;17.37;9.10;;;-1.60;99.90;;;;;;1862215;76;21501;-77
2022/03/01 07:07:39;;;;;;;14.30;9.15;;;-1.50;99.90;;;;;;1849771;75;21071;-78
2022/03/01 07:10:07;;;;;;;18.32;10.60;;;-1.50;99.90;;;;;;1859014;77;21532;-76
2022/03/01 07:12:34;;;;;;;20.23;9.93;;;-1.40;99.90;;;;;;1855825;75;21093;-78
2022/03/01 07:15:02;;;;;;;18.12;10.28;;;-1.30;99.90;;;;;;1802326;75;21077;-77
2022/03/01 07:17:29;;;;;;;17.27;10.25;;;-1.30;99.90;;;;;;1845475;75;21063;-77
2022/03/01 07:19:56;;;;;;;19.07;10.80;;;-1.20;99.90;;;;;;1829574;75;21077;-78
2022/03/01 07:22:24;;;;;;;20.90;10.68;;;-1.10;99.90;;;;;;1846647;75;21081;-78
2022/03/01 07:24:51;;;;;;;19.77;10.50;;;-1.00;99.90;;;;;;1842433;75;21055;-79
2022/03/01 07:27:20;;;;;;;18.15;11.22;;;-0.90;99.90;;;;;;1829038;76;21579;-79
2022/03/01 07:29:47;;;;;;;20.90;10.53;;;-0.80;99.90;;;;;;1858631;75;21496;-79
2022/03/01 07:32:14;;;;;;;17.98;9.88;;;-0.70;99.90;;;;;;1843669;75;21276;-79
2022/03/01 07:34:42;;;;;;;17.37;9.63;;;-0.70;99.90;;;;;;1830242;75;21061;-75
2022/03/01 07:37:10;;;;;;;14.65;9.50;;;-0.60;99.90;;;;;;1832155;75;21097;-75
2022/03/01 07:39:37;;;;;;;15.58;9.00;;;-0.50;99.90;;;;;;1852925;76;21096;-76
2022/03/01 07:42:05;;;;;;;22.35;10.08;;;-0.30;99.90;;;;;;1845469;75;21113;-76
2022/03/01 07:44:37;;;;;;;19.40;9.28;;;-0.20;99.90;;;;;;1828551;75;21088;-76
2022/03/01 07:47:08;;;;;;;10.58;7.83;;;-0.10;99.90;;;;;;1828354;75;21545;-76
2022/03/01 07:49:35;;;;;;;16.95;9.23;;;0.00;99.90;;;;;;1832419;75;21090;-76
2022/03/01 07:52:03;;;;;;;14.10;8.43;;;0.10;99.90;;;;;;1831099;75;21069;-76
2022/03/01 07:54:30;;;;;;;11.68;7.80;;;0.30;99.90;;;;;;1833773;75;21178;-76
2022/03/01 07:56:58;;;;;;;13.32;7.92;;;0.50;99.90;;;;;;1852609;75;21061;-77
2022/03/01 07:59:25;;;;;;;16.00;8.53;;;0.60;99.90;;;;;;1846842;75;21132;-75
2022/03/01 08:01:52;;;;;;;15.68;8.98;;;0.70;99.90;;;;;;1841537;75;21077;-75
2022/03/01 08:04:20;;;;;;;24.55;8.40;;;0.70;99.90;;;;;;1849402;77;21098;-75
2022/03/01 08:06:49;;;;;;;15.85;8.30;;;0.80;99.90;;;;;;1837768;75;21185;-76
2022/03/01 08:09:16;;;;;;;13.85;7.90;;;0.90;99.90;;;;;;1831503;75;21101;-75
2022/03/01 08:11:43;;;;;;;17.62;8.88;;;1.00;99.90;;;;;;1844161;75;21164;-76
2022/03/01 08:14:11;;;;;;;15.43;8.13;;;1.10;99.90;;;;;;1855588;76;21281;-76
2022/03/01 08:16:38;;;;;;;11.90;7.47;;;1.20;99.90;;;;;;1844279;75;21081;-75
2022/03/01 08:19:05;;;;;;;17.17;9.18;;;1.30;99.90;;;;;;1841750;76;21179;-75
2022/03/01 08:21:32;;;;;;;14.05;7.80;;;1.40;99.90;;;;;;1849897;76;21155;-76
2022/03/01 08:24:00;;;;;;;25.72;8.55;;;1.50;99.90;;;;;;1844473;75;21172;-77
2022/03/01 08:26:27;;;;;;;13.88;8.48;;;1.60;99.90;;;;;;1843101;76;21474;-76
2022/03/01 08:28:54;;;;;;;13.40;8.18;;;1.80;99.90;;;;;;1814874;76;21085;-76
2022/03/01 08:31:22;;;;;;;16.85;8.25;;;1.90;99.90;;;;;;1829092;75;21565;-77
2022/03/01 08:33:49;;;;;;;14.68;8.63;;;2.00;99.90;;;;;;1853343;76;21163;-76
2022/03/01 08:36:18;;;;;;;16.25;9.15;;;2.10;99.90;;;;;;1839838;75;21061;-76
2022/03/01 08:38:45;;;;;;;16.67;8.38;;;2.20;99.90;;;;;;1851084;75;21214;-76
2022/03/01 08:41:12;;;;;;;12.00;7.55;;;2.40;99.90;;;;;;1853577;76;21076;-75
2022/03/01 08:43:40;;;;;;;12.93;7.90;;;2.50;99.90;;;;;;1847475;75;21174;-75
2022/03/01 08:46:11;;;;;;;12.15;7.60;;;2.70;99.90;;;;;;1854086;76;21067;-76
2022/03/01 08:48:39;;;;;;;12.05;7.78;;;2.90;99.90;;;;;;1858958;76;21160;-75
2022/03/01 08:51:06;;;;;;;19.73;8.25;;;3.00;99.90;;;;;;1840515;75;21148;-75
2022/03/01 08:53:33;;;;;;;12.13;8.18;;;3.00;99.90;;;;;;1832721;75;21474;-72
2022/03/01 08:56:01;;;;;;;18.17;8.23;;;3.10;99.90;;;;;;1859946;76;21088;-75
2022/03/01 08:58:28;;;;;;;14.33;7.25;;;3.30;99.90;;;;;;1838094;76;21089;-75
2022/03/01 09:00:55;;;;;;;12.05;7.40;;;3.30;99.90;;;;;;1843653;75;21512;-75
2022/03/01 09:03:26;;;;;;;11.28;7.40;;;3.40;99.90;;;;;;1828282;75;21089;-75
2022/03/01 09:05:53;;;;;;;16.05;8.60;;;3.70;99.90;;;;;;1830049;76;21167;-73
2022/03/01 09:08:21;;;;;;;12.82;7.28;;;3.90;99.90;;;;;;1838324;75;21470;-73
2022/03/01 09:10:48;;;;;;;16.12;7.92;;;3.80;99.90;;;;;;1830207;76;21089;-74
2022/03/01 09:13:15;;;;;;;16.77;8.10;;;4.00;99.90;;;;;;1838692;75;21465;-73
2022/03/01 09:16:02;;;;;;;13.50;7.58;;;3.90;99.90;;;;;;1840041;75;21159;-73
2022/03/01 09:18:29;;;;;;;12.03;7.45;;;4.20;99.90;;;;;;1896339;75;21138;-73
2022/03/01 09:20:57;;;;;;;15.38;7.42;;;4.50;99.90;;;;;;1891330;74;21234;-74
2022/03/01 09:23:24;;;;;;;14.40;6.83;;;4.50;99.90;;;;;;1887744;74;21139;-73
2022/03/01 09:25:58;;;;;;;14.87;7.03;;;4.60;99.90;;;;;;1894824;74;21065;-73
2022/03/01 09:28:25;;;;;;;16.85;6.80;;;4.80;99.90;;;;;;1891301;74;21196;-73
2022/03/01 09:30:52;;;;;;;11.53;6.97;;;4.90;99.90;;;;;;1898313;74;21130;-74
2022/03/01 09:33:20;;;;;;;11.45;6.70;;;5.10;99.90;;;;;;1891302;75;21068;-73
2022/03/01 09:35:47;;;;;;;19.00;6.72;;;5.30;99.90;;;;;;1897885;74;21084;-73
2022/03/01 09:38:15;;;;;;;14.78;7.87;;;5.00;99.90;;;;;;1889954;74;21131;-74
2022/03/01 09:40:42;;;;;;;10.95;6.45;;;5.10;99.90;;;;;;1898109;75;21054;-74
2022/03/01 09:43:11;;;;;;;19.60;7.67;;;5.40;99.90;;;;;;1853665;75;21155;-80
2022/03/01 09:45:38;;;;;;;12.37;7.42;;;5.80;99.90;;;;;;1898411;74;21219;-73
2022/03/01 09:48:05;;;;;;;13.48;7.35;;;6.30;99.90;;;;;;1857201;77;21131;-72
2022/03/01 09:50:32;;;;;;;12.82;7.00;;;6.10;99.90;;;;;;1889831;74;21076;-73
2022/03/01 09:53:01;;;;;;;10.78;7.05;;;6.10;99.90;;;;;;1885642;74;21057;-73
2022/03/01 09:55:28;;;;;;;8.98;6.55;;;6.20;99.90;;;;;;1898310;74;21107;-74
2022/03/01 09:57:56;;;;;;;12.82;7.00;;;6.00;99.90;;;;;;1894855;74;21097;-74
2022/03/01 10:00:24;;;;;;;12.25;7.28;;;6.20;99.90;;;;;;1894767;75;21069;-73
2022/03/01 10:02:54;;;;;;;12.55;6.80;;;5.90;99.00;;;;;;1894947;74;21251;-73
2022/03/01 10:05:34;;;;;;;16.52;7.35;;;6.20;98.90;;;;;;1890342;74;21070;-73
2022/03/01 10:08:13;;;;;;;19.37;7.83;;;6.00;99.30;;;;;;1892800;74;21538;-74
2022/03/01 10:10:48;;;;;;;11.10;7.15;;;6.30;99.20;;;;;;1894769;74;21072;-74
2022/03/01 10:13:17;;;;;;;10.82;7.03;;;6.70;98.60;;;;;;1894857;74;21072;-73
2022/03/01 10:15:45;;;;;;;11.47;7.20;;;6.50;98.40;;;;;;1894182;74;21065;-73
2022/03/01 10:18:14;;;;;;;10.45;6.40;;;6.30;98.10;;;;;;1898248;74;21134;-71
2022/03/01 10:20:44;;;;;;;8.20;5.87;;;6.60;96.90;;;;;;1884163;74;21093;-71
2022/03/01 10:23:13;;;;;;;12.33;6.45;;;6.30;96.70;;;;;;1851409;76;21141;-75
2022/03/01 10:25:42;;;;;;;8.88;6.62;;;6.50;97.30;;;;;;1891240;74;21447;-74
2022/03/01 10:28:11;;;;;;;13.13;6.30;;;7.10;96.30;;;;;;1887841;74;21123;-74
2022/03/01 10:30:39;;;;;;;13.48;6.37;;;7.60;94.90;;;;;;1848953;77;21230;-74
2022/03/01 10:33:11;;;;;;;10.90;6.97;;;7.40;94.70;;;;;;1851612;76;21173;-74
2022/03/01 10:35:40;;;;;;;8.35;5.95;;;7.10;94.30;;;;;;1894442;74;21146;-75
2022/03/01 10:38:08;;;;;;;11.00;5.80;;;7.00;95.20;;;;;;1849134;76;21478;-76
2022/03/01 10:40:37;;;;;;;12.88;6.70;;;6.90;94.40;;;;;;1855557;77;21166;-72
2022/03/01 10:43:09;;;;;;;10.90;6.42;;;7.30;94.50;;;;;;1898149;74;21049;-73
2022/03/01 10:45:44;;;;;;;8.13;5.72;;;6.90;93.60;;;;;;1884642;74;21046;-73
2022/03/01 10:48:15;;;;;;;10.20;5.47;;;7.70;93.10;;;;;;1891951;74;21138;-73
2022/03/01 10:50:42;;;;;;;;;;;7.80;91.90;;;;;;1883399;75;21155;-72
2022/03/01 10:53:11;;;;;;;7.80;5.72;;;8.30;91.20;;;;;;1893295;74;20177;-73
2022/03/01 10:55:41;;;;;;;10.18;6.53;;;8.80;90.40;;;;;;1894243;74;21142;-73
2022/03/01 10:58:12;;;;;;;13.32;6.20;;;9.00;88.60;;;;;;1891414;74;21434;-74
2022/03/01 11:00:38;;;;;;;12.10;5.95;;;8.80;87.00;;;;;;1892719;74;21171;-73
2022/03/01 11:03:06;;;;;;;7.70;5.70;;;8.70;87.60;;;;;;1894713;74;21130;-73
2022/03/01 11:05:34;;;;;;;11.95;5.50;;;9.30;83.10;;;;;;1885632;74;21150;-72
2022/03/01 11:08:08;;;;;;;10.15;7.08;;;9.50;83.10;;;;;;1889955;75;21081;-73
2022/03/01 11:10:35;;;;;;;13.22;5.87;;;9.00;80.20;;;;;;1887151;74;21072;-73
2022/03/01 11:13:02;;;;;;;11.45;6.15;;;8.70;82.80;;;;;;1850405;76;21066;-72
2022/03/01 11:16:06;;;;;;;7.12;5.37;;;8.70;83.50;;;;;;1849656;77;21082;-72
2022/03/01 11:18:59;;;;;;;10.98;5.62;;;9.20;84.10;;;;;;1842523;78;21038;-74
2022/03/01 11:21:28;;;;;;;8.10;5.47;;;9.80;77.60;;;;;;1842451;78;21104;-74
2022/03/01 11:23:57;;;;;;;9.18;5.85;;;9.90;76.00;;;;;;1843329;78;21505;-73
2022/03/01 11:26:24;;;;;;;8.43;5.58;;;9.70;74.60;;;;;;1850105;76;21074;-73
2022/03/01 11:28:55;;;;;;;12.23;5.80;;;9.90;75.00;;;;;;1856632;75;21112;-72
2022/03/01 11:31:25;;;;;;;11.48;5.47;;;9.40;76.20;;;;;;1891554;74;21426;-74
2022/03/01 11:33:55;;;;;;;;;;;9.00;77.00;;;;;;1896156;74;21061;-72
2022/03/01 11:36:23;;;;;;;9.45;5.62;;;9.30;76.10;;;;;;1894211;74;20184;-75
2022/03/01 11:38:51;;;;;;;8.98;6.05;;;9.00;77.30;;;;;;1893282;74;21068;-74
2022/03/01 11:41:22;;;;;;;7.37;5.65;;;9.60;77.60;;;;;;1889193;74;21072;-73
2022/03/01 11:43:56;;;;;;;12.78;5.83;;;10.60;72.30;;;;;;1885549;74;21082;-73
2022/03/01 11:46:24;;;;;;;9.45;5.95;;;11.00;71.20;;;;;;1899148;74;21158;-71
2022/03/01 11:48:56;;;;;;;12.28;6.10;;;10.40;70.40;;;;;;1890418;74;21149;-73
2022/03/01 11:51:34;;;;;;;7.85;5.30;;;10.90;69.40;;;;;;1888211;74;21069;-72
2022/03/01 11:54:06;;;;;;;15.95;5.28;;;11.80;66.40;;;;;;1896282;74;21073;-73
2022/03/01 11:56:35;;;;;;;16.40;5.03;;;11.70;61.40;;;;;;1895877;74;21138;-72
2022/03/01 11:59:10;;;;;;;10.30;5.43;;;11.20;63.10;;;;;;1895283;74;21076;-73
2022/03/01 12:01:38;;;;;;;7.40;5.40;;;11.90;61.30;;;;;;1895335;75;21211;-73
2022/03/01 12:04:07;;;;;;;6.67;5.25;;;12.10;59.30;;;;;;1895514;74;21076;-73
2022/03/01 12:06:37;;;;;;;16.60;4.92;;;13.10;57.60;;;;;;1890547;74;21049;-73
2022/03/01 12:09:07;;;;;;;7.30;5.55;;;12.40;57.70;;;;;;1898265;74;21453;-74
2022/03/01 12:11:44;;;;;;;12.75;5.80;;;11.90;58.90;;;;;;1896273;74;21119;-73
2022/03/01 12:14:14;;;;;;;6.72;4.80;;;11.90;58.50;;;;;;1888424;74;21081;-73
2022/03/01 12:16:41;;;;;;;6.08;4.95;;;11.90;57.20;;;;;;1899093;74;21068;-72
2022/03/01 12:19:14;;;;;;;7.95;4.97;;;11.90;57.90;;;;;;1892197;74;21065;-73
2022/03/01 12:21:50;;;;;;;7.20;5.37;;;11.90;56.60;;;;;;1889450;74;21084;-73
2022/03/01 12:24:18;;;;;;;8.65;5.10;;;11.80;57.50;;;;;;1899644;74;21182;-73
2022/03/01 12:26:54;;;;;;;9.45;5.50;;;11.30;58.10;;;;;;1887829;74;21053;-73
2022/03/01 12:29:20;;;;;;;10.48;5.45;;;10.50;58.40;;;;;;1893658;74;21057;-74
2022/03/01 12:32:09;;;;;;;6.33;5.30;;;10.30;59.80;;;;;;1885138;74;21050;-74
2022/03/01 12:34:36;;;;;;;12.05;5.58;;;10.00;60.30;;;;;;1884437;74;21139;-74
2022/03/01 12:37:07;;;;;;;8.80;5.42;;;10.50;59.90;;;;;;1891015;74;21278;-74
2022/03/01 12:39:34;;;;;;;;;;;10.80;59.20;;;;;;1894336;74;21065;-74
2022/03/01 12:42:02;;;;;;;8.75;5.37;;;10.70;57.70;;;;;;1888371;74;20185;-75
2022/03/01 12:44:31;;;;;;;10.10;5.12;;;10.60;58.70;;;;;;1898242;74;21538;-75
2022/03/01 12:46:59;;;;;;;7.72;5.05;;;10.60;59.00;;;;;;1894877;74;21131;-76
2022/03/01 12:49:29;;;;;;;6.60;5.00;;;11.50;58.30;;;;;;1891390;74;21065;-75
2022/03/01 12:51:57;;;;;;;7.87;4.60;;;11.80;57.30;;;;;;1898183;74;21093;-75